LZTT/TAT METAR and TAF weather

Enter ICAO airport designator
Station Type Date Time Source
LZTT METAR 2022/01/29 13:00 UTC NOAA

LZTT 291300Z 25011KT 9999 FEW023 SCT053 M01/M06 Q1018 NOSIG


Station Type Date Time Source
LZTT Decoded METAR 2022/01/29 13:00 UTC NOAA

Poprad / Tatry, Slovakia (LZTT) 49-04N 020-15E 695M
Jan 29, 2022 - 08:00 AM EST / 2022.01.29 1300 UTC
Wind: from the WSW (250 degrees) at 13 MPH (11 KT):0
Visibility: greater than 7 mile(s):0
Sky conditions: partly cloudy
Temperature: 30 F (-1 C)
Windchill: 19 F (-7 C):1
Dew Point: 21 F (-6 C)
Relative Humidity: 68%
Pressure (altimeter): 30.06 in. Hg (1018 hPa)
ob: LZTT 291300Z 25011KT 9999 FEW023 SCT053 M01/M06 Q1018 NOSIG
cycle: 13

Station Type Date Time Source
LZTT TAF 2022/01/29 12:05 UTC NOAA

TAF LZTT 291100Z 2912/3012 25015KT 9999 BKN080
TEMPO 2912/2914 25020G30KT DRSN
BECMG 2914/2916 -SN SCT015 BKN035
TEMPO 2914/3012 24028G42KT 1200 SN BLSN BKN007 OVC020 PROB40
TEMPO 3009/3012 0600 +SN BLSN BKN004 OVC015

Example: see airport list